sensor_id;sensor_type;location;lat;lon;timestamp;P1;durP1;ratioP1;P2;durP2;ratioP2
47289;SDS011;33197;52.524;13.444;2023-06-05T00:00:16;2.45;;;2.03;;
47289;SDS011;33197;52.524;13.444;2023-06-05T00:03:07;4.15;;;1.63;;
47289;SDS011;33197;52.524;13.444;2023-06-05T00:05:38;6.60;;;2.13;;
47289;SDS011;33197;52.524;13.444;2023-06-05T00:08:06;3.20;;;1.90;;
47289;SDS011;33197;52.524;13.444;2023-06-05T00:10:37;3.90;;;1.08;;
47289;SDS011;33197;52.524;13.444;2023-06-05T00:13:11;3.05;;;1.30;;
47289;SDS011;33197;52.524;13.444;2023-06-05T00:15:40;2.72;;;1.73;;
47289;SDS011;33197;52.524;13.444;2023-06-05T00:18:08;3.17;;;1.58;;
47289;SDS011;33197;52.524;13.444;2023-06-05T00:20:42;2.05;;;1.38;;
47289;SDS011;33197;52.524;13.444;2023-06-05T00:23:10;2.33;;;1.30;;
47289;SDS011;33197;52.524;13.444;2023-06-05T00:25:41;2.70;;;1.55;;
47289;SDS011;33197;52.524;13.444;2023-06-05T00:28:08;1.80;;;1.10;;
47289;SDS011;33197;52.524;13.444;2023-06-05T00:30:37;2.83;;;1.30;;
47289;SDS011;33197;52.524;13.444;2023-06-05T00:33:08;3.63;;;1.70;;
47289;SDS011;33197;52.524;13.444;2023-06-05T00:35:39;3.22;;;0.90;;
47289;SDS011;33197;52.524;13.444;2023-06-05T00:38:08;1.80;;;1.35;;
47289;SDS011;33197;52.524;13.444;2023-06-05T00:40:38;2.95;;;1.45;;
47289;SDS011;33197;52.524;13.444;2023-06-05T00:43:06;5.65;;;1.60;;
47289;SDS011;33197;52.524;13.444;2023-06-05T00:45:37;1.77;;;1.02;;
47289;SDS011;33197;52.524;13.444;2023-06-05T00:48:05;3.53;;;1.42;;
47289;SDS011;33197;52.524;13.444;2023-06-05T00:51:02;5.28;;;2.42;;
47289;SDS011;33197;52.524;13.444;2023-06-05T00:53:35;4.65;;;1.60;;
47289;SDS011;33197;52.524;13.444;2023-06-05T00:56:04;4.28;;;1.52;;
47289;SDS011;33197;52.524;13.444;2023-06-05T00:58:59;2.83;;;1.60;;
47289;SDS011;33197;52.524;13.444;2023-06-05T01:01:28;4.95;;;1.50;;
47289;SDS011;33197;52.524;13.444;2023-06-05T01:03:58;2.95;;;1.67;;
47289;SDS011;33197;52.524;13.444;2023-06-05T01:10:34;2.60;;;1.35;;
47289;SDS011;33197;52.524;13.444;2023-06-05T01:13:13;3.38;;;1.30;;
47289;SDS011;33197;52.524;13.444;2023-06-05T01:15:45;3.58;;;1.27;;
47289;SDS011;33197;52.524;13.444;2023-06-05T01:18:21;2.33;;;1.40;;
47289;SDS011;33197;52.524;13.444;2023-06-05T01:20:50;2.03;;;1.20;;
47289;SDS011;33197;52.524;13.444;2023-06-05T01:23:23;3.58;;;1.55;;
47289;SDS011;33197;52.524;13.444;2023-06-05T01:25:52;2.17;;;1.25;;
47289;SDS011;33197;52.524;13.444;2023-06-05T01:28:23;3.60;;;1.33;;
47289;SDS011;33197;52.524;13.444;2023-06-05T01:33:49;2.55;;;1.50;;
47289;SDS011;33197;52.524;13.444;2023-06-05T01:36:25;1.75;;;1.40;;
47289;SDS011;33197;52.524;13.444;2023-06-05T01:39:14;3.80;;;1.50;;
47289;SDS011;33197;52.524;13.444;2023-06-05T01:42:02;2.92;;;1.55;;
47289;SDS011;33197;52.524;13.444;2023-06-05T01:44:51;2.88;;;1.20;;
47289;SDS011;33197;52.524;13.444;2023-06-05T01:47:38;2.08;;;1.40;;
47289;SDS011;33197;52.524;13.444;2023-06-05T01:50:32;2.20;;;1.20;;
47289;SDS011;33197;52.524;13.444;2023-06-05T01:53:02;2.17;;;1.38;;
47289;SDS011;33197;52.524;13.444;2023-06-05T01:55:35;3.03;;;1.20;;
47289;SDS011;33197;52.524;13.444;2023-06-05T01:58:06;3.70;;;1.50;;
47289;SDS011;33197;52.524;13.444;2023-06-05T02:00:36;2.90;;;1.23;;
47289;SDS011;33197;52.524;13.444;2023-06-05T02:03:06;3.63;;;1.23;;
47289;SDS011;33197;52.524;13.444;2023-06-05T02:05:35;2.90;;;1.30;;
47289;SDS011;33197;52.524;13.444;2023-06-05T02:08:03;4.45;;;1.25;;
47289;SDS011;33197;52.524;13.444;2023-06-05T02:10:36;1.80;;;1.10;;
47289;SDS011;33197;52.524;13.444;2023-06-05T02:13:13;1.23;;;0.93;;
47289;SDS011;33197;52.524;13.444;2023-06-05T02:15:47;2.78;;;1.10;;
47289;SDS011;33197;52.524;13.444;2023-06-05T02:18:18;3.00;;;1.55;;
47289;SDS011;33197;52.524;13.444;2023-06-05T02:21:16;2.92;;;1.70;;
47289;SDS011;33197;52.524;13.444;2023-06-05T02:23:47;5.43;;;1.25;;
47289;SDS011;33197;52.524;13.444;2023-06-05T02:26:22;2.58;;;1.63;;
47289;SDS011;33197;52.524;13.444;2023-06-05T02:29:13;2.85;;;1.70;;
47289;SDS011;33197;52.524;13.444;2023-06-05T02:32:04;2.97;;;1.50;;
47289;SDS011;33197;52.524;13.444;2023-06-05T02:34:35;1.83;;;1.23;;
47289;SDS011;33197;52.524;13.444;2023-06-05T02:37:04;2.40;;;1.10;;
47289;SDS011;33197;52.524;13.444;2023-06-05T02:39:37;3.03;;;1.13;;
47289;SDS011;33197;52.524;13.444;2023-06-05T02:42:05;2.63;;;1.45;;
47289;SDS011;33197;52.524;13.444;2023-06-05T02:44:36;2.08;;;1.33;;
47289;SDS011;33197;52.524;13.444;2023-06-05T02:47:05;4.55;;;1.60;;
47289;SDS011;33197;52.524;13.444;2023-06-05T02:49:36;2.78;;;1.35;;
47289;SDS011;33197;52.524;13.444;2023-06-05T02:52:04;3.47;;;1.10;;
47289;SDS011;33197;52.524;13.444;2023-06-05T02:54:37;3.72;;;1.38;;
47289;SDS011;33197;52.524;13.444;2023-06-05T02:57:10;5.10;;;1.40;;
47289;SDS011;33197;52.524;13.444;2023-06-05T02:59:38;2.60;;;1.58;;
47289;SDS011;33197;52.524;13.444;2023-06-05T03:02:11;3.35;;;1.50;;
47289;SDS011;33197;52.524;13.444;2023-06-05T03:04:40;2.38;;;1.80;;
47289;SDS011;33197;52.524;13.444;2023-06-05T03:07:27;2.90;;;1.52;;
47289;SDS011;33197;52.524;13.444;2023-06-05T03:09:59;1.88;;;1.13;;
47289;SDS011;33197;52.524;13.444;2023-06-05T03:12:32;4.22;;;1.40;;
47289;SDS011;33197;52.524;13.444;2023-06-05T03:15:00;2.47;;;1.42;;
47289;SDS011;33197;52.524;13.444;2023-06-05T03:17:34;4.45;;;1.60;;
47289;SDS011;33197;52.524;13.444;2023-06-05T03:20:02;2.33;;;1.60;;
47289;SDS011;33197;52.524;13.444;2023-06-05T03:22:39;5.90;;;1.33;;
47289;SDS011;33197;52.524;13.444;2023-06-05T03:25:17;5.97;;;1.52;;
47289;SDS011;33197;52.524;13.444;2023-06-05T03:27:47;2.65;;;1.10;;
47289;SDS011;33197;52.524;13.444;2023-06-05T03:30:21;2.23;;;1.40;;
47289;SDS011;33197;52.524;13.444;2023-06-05T03:32:49;2.22;;;1.23;;
47289;SDS011;33197;52.524;13.444;2023-06-05T03:35:18;4.40;;;1.83;;
47289;SDS011;33197;52.524;13.444;2023-06-05T03:37:46;2.75;;;1.40;;
47289;SDS011;33197;52.524;13.444;2023-06-05T03:40:13;5.38;;;1.30;;
47289;SDS011;33197;52.524;13.444;2023-06-05T03:42:44;3.72;;;1.23;;
47289;SDS011;33197;52.524;13.444;2023-06-05T03:45:11;2.83;;;1.25;;
47289;SDS011;33197;52.524;13.444;2023-06-05T03:47:42;7.15;;;1.77;;
47289;SDS011;33197;52.524;13.444;2023-06-05T03:50:12;3.05;;;1.63;;
47289;SDS011;33197;52.524;13.444;2023-06-05T03:52:41;2.83;;;1.73;;
47289;SDS011;33197;52.524;13.444;2023-06-05T03:55:12;2.58;;;1.40;;
47289;SDS011;33197;52.524;13.444;2023-06-05T03:57:42;3.40;;;1.73;;
47289;SDS011;33197;52.524;13.444;2023-06-05T04:00:13;4.88;;;1.92;;
47289;SDS011;33197;52.524;13.444;2023-06-05T04:02:46;8.80;;;2.07;;
47289;SDS011;33197;52.524;13.444;2023-06-05T04:05:17;3.00;;;1.35;;
47289;SDS011;33197;52.524;13.444;2023-06-05T04:07:48;3.38;;;1.35;;
47289;SDS011;33197;52.524;13.444;2023-06-05T04:10:19;3.22;;;1.70;;
47289;SDS011;33197;52.524;13.444;2023-06-05T04:12:48;4.70;;;1.58;;
47289;SDS011;33197;52.524;13.444;2023-06-05T04:15:22;3.97;;;1.50;;
47289;SDS011;33197;52.524;13.444;2023-06-05T04:17:52;4.40;;;1.88;;
47289;SDS011;33197;52.524;13.444;2023-06-05T04:20:30;3.65;;;1.85;;
47289;SDS011;33197;52.524;13.444;2023-06-05T04:23:01;5.75;;;1.95;;
47289;SDS011;33197;52.524;13.444;2023-06-05T04:25:43;7.13;;;1.77;;
47289;SDS011;33197;52.524;13.444;2023-06-05T04:28:15;2.92;;;1.60;;
47289;SDS011;33197;52.524;13.444;2023-06-05T04:30:47;7.68;;;1.95;;
47289;SDS011;33197;52.524;13.444;2023-06-05T04:33:20;5.32;;;2.22;;
47289;SDS011;33197;52.524;13.444;2023-06-05T04:35:48;3.00;;;1.45;;
47289;SDS011;33197;52.524;13.444;2023-06-05T04:38:16;4.95;;;1.73;;
47289;SDS011;33197;52.524;13.444;2023-06-05T04:40:48;4.07;;;1.80;;
47289;SDS011;33197;52.524;13.444;2023-06-05T04:43:16;2.95;;;1.73;;
47289;SDS011;33197;52.524;13.444;2023-06-05T04:45:44;5.20;;;2.45;;
47289;SDS011;33197;52.524;13.444;2023-06-05T04:48:13;6.32;;;2.25;;
47289;SDS011;33197;52.524;13.444;2023-06-05T04:50:40;2.45;;;1.70;;
47289;SDS011;33197;52.524;13.444;2023-06-05T04:53:09;3.35;;;1.67;;
47289;SDS011;33197;52.524;13.444;2023-06-05T04:55:37;4.45;;;1.85;;
47289;SDS011;33197;52.524;13.444;2023-06-05T04:58:12;3.08;;;1.65;;
47289;SDS011;33197;52.524;13.444;2023-06-05T05:00:40;5.53;;;1.60;;
47289;SDS011;33197;52.524;13.444;2023-06-05T05:03:12;3.10;;;2.00;;
47289;SDS011;33197;52.524;13.444;2023-06-05T05:05:46;8.65;;;1.60;;
47289;SDS011;33197;52.524;13.444;2023-06-05T05:08:17;3.67;;;1.67;;
47289;SDS011;33197;52.524;13.444;2023-06-05T05:10:47;6.57;;;1.50;;
47289;SDS011;33197;52.524;13.444;2023-06-05T05:13:19;2.95;;;1.77;;
47289;SDS011;33197;52.524;13.444;2023-06-05T05:15:46;6.05;;;1.92;;
47289;SDS011;33197;52.524;13.444;2023-06-05T05:18:15;3.30;;;1.40;;
47289;SDS011;33197;52.524;13.444;2023-06-05T05:20:44;6.95;;;2.28;;
47289;SDS011;33197;52.524;13.444;2023-06-05T05:23:14;3.78;;;1.70;;
47289;SDS011;33197;52.524;13.444;2023-06-05T05:25:46;3.42;;;1.98;;
47289;SDS011;33197;52.524;13.444;2023-06-05T05:28:16;5.30;;;1.90;;
47289;SDS011;33197;52.524;13.444;2023-06-05T05:30:44;4.85;;;1.85;;
47289;SDS011;33197;52.524;13.444;2023-06-05T05:33:11;7.03;;;1.75;;
47289;SDS011;33197;52.524;13.444;2023-06-05T05:35:42;4.72;;;1.70;;
47289;SDS011;33197;52.524;13.444;2023-06-05T05:38:15;3.90;;;1.90;;
47289;SDS011;33197;52.524;13.444;2023-06-05T05:40:45;4.80;;;2.20;;
47289;SDS011;33197;52.524;13.444;2023-06-05T05:43:19;3.17;;;1.70;;
47289;SDS011;33197;52.524;13.444;2023-06-05T05:45:52;3.15;;;1.90;;
47289;SDS011;33197;52.524;13.444;2023-06-05T05:48:19;6.15;;;1.75;;
47289;SDS011;33197;52.524;13.444;2023-06-05T05:50:50;4.18;;;2.03;;
47289;SDS011;33197;52.524;13.444;2023-06-05T05:53:20;4.78;;;2.17;;
47289;SDS011;33197;52.524;13.444;2023-06-05T05:55:48;3.38;;;1.83;;
47289;SDS011;33197;52.524;13.444;2023-06-05T05:58:18;7.18;;;2.10;;
47289;SDS011;33197;52.524;13.444;2023-06-05T06:00:46;6.07;;;1.77;;
47289;SDS011;33197;52.524;13.444;2023-06-05T06:03:30;5.03;;;2.00;;
47289;SDS011;33197;52.524;13.444;2023-06-05T06:06:08;7.03;;;2.03;;
47289;SDS011;33197;52.524;13.444;2023-06-05T06:08:36;6.93;;;2.10;;
47289;SDS011;33197;52.524;13.444;2023-06-05T06:11:27;2.80;;;1.50;;
47289;SDS011;33197;52.524;13.444;2023-06-05T06:13:57;7.80;;;1.45;;
47289;SDS011;33197;52.524;13.444;2023-06-05T06:16:30;4.13;;;1.83;;
47289;SDS011;33197;52.524;13.444;2023-06-05T06:19:01;4.50;;;1.60;;
47289;SDS011;33197;52.524;13.444;2023-06-05T06:21:37;4.88;;;1.95;;
47289;SDS011;33197;52.524;13.444;2023-06-05T06:24:06;4.95;;;1.77;;
47289;SDS011;33197;52.524;13.444;2023-06-05T06:26:34;14.52;;;2.40;;
47289;SDS011;33197;52.524;13.444;2023-06-05T06:29:07;8.68;;;2.10;;
47289;SDS011;33197;52.524;13.444;2023-06-05T06:31:35;6.25;;;1.95;;
47289;SDS011;33197;52.524;13.444;2023-06-05T06:34:03;6.90;;;2.05;;
47289;SDS011;33197;52.524;13.444;2023-06-05T06:36:36;7.50;;;2.47;;
47289;SDS011;33197;52.524;13.444;2023-06-05T06:39:07;5.88;;;2.35;;
47289;SDS011;33197;52.524;13.444;2023-06-05T06:41:39;10.02;;;3.03;;
47289;SDS011;33197;52.524;13.444;2023-06-05T06:44:10;7.60;;;2.55;;
47289;SDS011;33197;52.524;13.444;2023-06-05T06:46:40;7.65;;;1.95;;
47289;SDS011;33197;52.524;13.444;2023-06-05T06:49:08;7.85;;;2.30;;
47289;SDS011;33197;52.524;13.444;2023-06-05T06:51:36;10.85;;;2.28;;
47289;SDS011;33197;52.524;13.444;2023-06-05T06:54:06;3.05;;;1.70;;
47289;SDS011;33197;52.524;13.444;2023-06-05T06:56:35;7.55;;;1.70;;
47289;SDS011;33197;52.524;13.444;2023-06-05T06:59:10;7.30;;;1.90;;
47289;SDS011;33197;52.524;13.444;2023-06-05T07:01:45;8.40;;;2.03;;
47289;SDS011;33197;52.524;13.444;2023-06-05T07:04:16;6.95;;;1.85;;
47289;SDS011;33197;52.524;13.444;2023-06-05T07:06:46;7.18;;;1.75;;
47289;SDS011;33197;52.524;13.444;2023-06-05T07:09:16;9.02;;;2.15;;
47289;SDS011;33197;52.524;13.444;2023-06-05T07:11:46;7.95;;;1.95;;
47289;SDS011;33197;52.524;13.444;2023-06-05T07:14:17;9.18;;;1.90;;
47289;SDS011;33197;52.524;13.444;2023-06-05T07:16:47;4.90;;;2.10;;
47289;SDS011;33197;52.524;13.444;2023-06-05T07:19:22;4.90;;;1.98;;
47289;SDS011;33197;52.524;13.444;2023-06-05T07:21:50;4.60;;;1.52;;
47289;SDS011;33197;52.524;13.444;2023-06-05T07:24:17;3.80;;;1.85;;
47289;SDS011;33197;52.524;13.444;2023-06-05T07:26:45;7.63;;;1.75;;
47289;SDS011;33197;52.524;13.444;2023-06-05T07:29:13;8.00;;;1.73;;
47289;SDS011;33197;52.524;13.444;2023-06-05T07:31:41;8.57;;;2.15;;
47289;SDS011;33197;52.524;13.444;2023-06-05T07:34:10;7.32;;;2.00;;
47289;SDS011;33197;52.524;13.444;2023-06-05T07:36:39;9.75;;;1.80;;
47289;SDS011;33197;52.524;13.444;2023-06-05T07:39:07;7.13;;;2.10;;
47289;SDS011;33197;52.524;13.444;2023-06-05T07:41:34;5.15;;;1.85;;
47289;SDS011;33197;52.524;13.444;2023-06-05T07:44:06;6.25;;;1.70;;
47289;SDS011;33197;52.524;13.444;2023-06-05T07:46:37;9.43;;;1.85;;
47289;SDS011;33197;52.524;13.444;2023-06-05T07:49:09;5.28;;;2.22;;
47289;SDS011;33197;52.524;13.444;2023-06-05T07:51:39;5.47;;;1.60;;
47289;SDS011;33197;52.524;13.444;2023-06-05T07:54:10;6.07;;;1.92;;
47289;SDS011;33197;52.524;13.444;2023-06-05T07:56:43;5.35;;;1.70;;
47289;SDS011;33197;52.524;13.444;2023-06-05T08:02:06;5.97;;;1.95;;
47289;SDS011;33197;52.524;13.444;2023-06-05T08:04:34;7.75;;;1.95;;
47289;SDS011;33197;52.524;13.444;2023-06-05T08:07:03;10.48;;;1.80;;
47289;SDS011;33197;52.524;13.444;2023-06-05T08:09:32;2.67;;;1.40;;
47289;SDS011;33197;52.524;13.444;2023-06-05T08:12:05;4.80;;;1.50;;
47289;SDS011;33197;52.524;13.444;2023-06-05T08:14:41;3.58;;;1.80;;
47289;SDS011;33197;52.524;13.444;2023-06-05T08:17:10;9.88;;;2.22;;
47289;SDS011;33197;52.524;13.444;2023-06-05T08:19:41;7.78;;;1.42;;
47289;SDS011;33197;52.524;13.444;2023-06-05T08:22:08;7.05;;;1.73;;
47289;SDS011;33197;52.524;13.444;2023-06-05T08:24:39;5.60;;;1.30;;
47289;SDS011;33197;52.524;13.444;2023-06-05T08:27:06;7.00;;;1.70;;
47289;SDS011;33197;52.524;13.444;2023-06-05T08:29:35;12.82;;;1.85;;
47289;SDS011;33197;52.524;13.444;2023-06-05T08:35:00;7.43;;;1.98;;
47289;SDS011;33197;52.524;13.444;2023-06-05T08:37:31;5.13;;;1.42;;
47289;SDS011;33197;52.524;13.444;2023-06-05T08:39:58;3.95;;;1.63;;
47289;SDS011;33197;52.524;13.444;2023-06-05T08:45:47;3.83;;;1.15;;
47289;SDS011;33197;52.524;13.444;2023-06-05T08:48:24;4.47;;;1.73;;
47289;SDS011;33197;52.524;13.444;2023-06-05T08:50:53;6.28;;;1.35;;
47289;SDS011;33197;52.524;13.444;2023-06-05T08:53:21;4.38;;;1.70;;
47289;SDS011;33197;52.524;13.444;2023-06-05T08:55:53;7.47;;;2.25;;
47289;SDS011;33197;52.524;13.444;2023-06-05T08:58:21;10.30;;;2.08;;
47289;SDS011;33197;52.524;13.444;2023-06-05T09:00:49;8.40;;;2.03;;
47289;SDS011;33197;52.524;13.444;2023-06-05T09:03:19;6.85;;;2.00;;
47289;SDS011;33197;52.524;13.444;2023-06-05T09:05:47;5.90;;;2.05;;
47289;SDS011;33197;52.524;13.444;2023-06-05T09:08:15;2.35;;;1.50;;
47289;SDS011;33197;52.524;13.444;2023-06-05T09:10:44;4.15;;;1.48;;
47289;SDS011;33197;52.524;13.444;2023-06-05T09:13:14;5.55;;;1.85;;
47289;SDS011;33197;52.524;13.444;2023-06-05T09:15:45;3.80;;;1.42;;
47289;SDS011;33197;52.524;13.444;2023-06-05T09:18:17;8.38;;;1.83;;
47289;SDS011;33197;52.524;13.444;2023-06-05T09:20:50;3.05;;;1.38;;
47289;SDS011;33197;52.524;13.444;2023-06-05T09:23:27;8.10;;;2.10;;
47289;SDS011;33197;52.524;13.444;2023-06-05T09:25:57;5.85;;;1.88;;
47289;SDS011;33197;52.524;13.444;2023-06-05T09:28:27;2.53;;;1.73;;
47289;SDS011;33197;52.524;13.444;2023-06-05T09:34:37;4.63;;;1.55;;
47289;SDS011;33197;52.524;13.444;2023-06-05T09:37:10;6.40;;;2.15;;
47289;SDS011;33197;52.524;13.444;2023-06-05T09:39:41;3.25;;;1.75;;
47289;SDS011;33197;52.524;13.444;2023-06-05T09:44:40;8.43;;;1.80;;
47289;SDS011;33197;52.524;13.444;2023-06-05T09:47:08;7.90;;;1.70;;
47289;SDS011;33197;52.524;13.444;2023-06-05T09:52:11;7.22;;;1.60;;
47289;SDS011;33197;52.524;13.444;2023-06-05T09:54:42;3.78;;;1.40;;
47289;SDS011;33197;52.524;13.444;2023-06-05T09:57:14;6.93;;;1.73;;
47289;SDS011;33197;52.524;13.444;2023-06-05T09:59:55;3.08;;;1.63;;
47289;SDS011;33197;52.524;13.444;2023-06-05T10:02:24;5.97;;;1.67;;
47289;SDS011;33197;52.524;13.444;2023-06-05T10:04:56;2.70;;;1.23;;
47289;SDS011;33197;52.524;13.444;2023-06-05T10:07:26;5.00;;;1.50;;
47289;SDS011;33197;52.524;13.444;2023-06-05T10:09:54;5.95;;;1.58;;
47289;SDS011;33197;52.524;13.444;2023-06-05T10:12:22;2.00;;;1.40;;
47289;SDS011;33197;52.524;13.444;2023-06-05T10:14:54;2.45;;;1.20;;
47289;SDS011;33197;52.524;13.444;2023-06-05T10:17:27;4.05;;;1.42;;
47289;SDS011;33197;52.524;13.444;2023-06-05T10:19:57;3.03;;;1.67;;
47289;SDS011;33197;52.524;13.444;2023-06-05T10:22:28;4.38;;;1.40;;
47289;SDS011;33197;52.524;13.444;2023-06-05T10:24:57;2.30;;;1.40;;
47289;SDS011;33197;52.524;13.444;2023-06-05T10:42:06;2.95;;;1.52;;
47289;SDS011;33197;52.524;13.444;2023-06-05T10:44:39;6.80;;;1.60;;
47289;SDS011;33197;52.524;13.444;2023-06-05T10:52:49;4.20;;;1.52;;
47289;SDS011;33197;52.524;13.444;2023-06-05T10:55:19;4.57;;;2.00;;
47289;SDS011;33197;52.524;13.444;2023-06-05T11:00:29;3.08;;;1.50;;
47289;SDS011;33197;52.524;13.444;2023-06-05T11:02:59;7.57;;;2.10;;
47289;SDS011;33197;52.524;13.444;2023-06-05T11:05:29;3.60;;;1.80;;
47289;SDS011;33197;52.524;13.444;2023-06-05T11:11:04;5.85;;;1.67;;
47289;SDS011;33197;52.524;13.444;2023-06-05T11:13:55;3.85;;;1.77;;
47289;SDS011;33197;52.524;13.444;2023-06-05T11:22:05;4.10;;;1.73;;
47289;SDS011;33197;52.524;13.444;2023-06-05T11:24:37;3.13;;;1.63;;
47289;SDS011;33197;52.524;13.444;2023-06-05T11:27:40;2.47;;;1.75;;
47289;SDS011;33197;52.524;13.444;2023-06-05T11:30:12;4.10;;;2.03;;
47289;SDS011;33197;52.524;13.444;2023-06-05T11:33:05;4.82;;;2.05;;
47289;SDS011;33197;52.524;13.444;2023-06-05T11:35:47;5.18;;;2.15;;
47289;SDS011;33197;52.524;13.444;2023-06-05T11:38:21;3.53;;;1.92;;
47289;SDS011;33197;52.524;13.444;2023-06-05T11:40:52;6.07;;;1.88;;
47289;SDS011;33197;52.524;13.444;2023-06-05T11:43:23;4.63;;;1.70;;
47289;SDS011;33197;52.524;13.444;2023-06-05T11:45:54;6.68;;;1.85;;
47289;SDS011;33197;52.524;13.444;2023-06-05T11:48:24;4.88;;;1.90;;
47289;SDS011;33197;52.524;13.444;2023-06-05T11:50:59;9.18;;;1.88;;
47289;SDS011;33197;52.524;13.444;2023-06-05T11:53:29;5.93;;;1.80;;
47289;SDS011;33197;52.524;13.444;2023-06-05T11:56:00;4.18;;;1.90;;
47289;SDS011;33197;52.524;13.444;2023-06-05T11:58:32;5.43;;;2.13;;
47289;SDS011;33197;52.524;13.444;2023-06-05T12:01:13;4.90;;;1.90;;
47289;SDS011;33197;52.524;13.444;2023-06-05T12:03:45;3.40;;;1.75;;
47289;SDS011;33197;52.524;13.444;2023-06-05T12:06:16;3.42;;;1.80;;
47289;SDS011;33197;52.524;13.444;2023-06-05T12:08:46;5.88;;;1.70;;
47289;SDS011;33197;52.524;13.444;2023-06-05T12:11:22;3.58;;;1.63;;
47289;SDS011;33197;52.524;13.444;2023-06-05T12:13:58;3.05;;;2.00;;
47289;SDS011;33197;52.524;13.444;2023-06-05T12:21:43;2.28;;;1.77;;
47289;SDS011;33197;52.524;13.444;2023-06-05T12:24:26;7.18;;;2.40;;
47289;SDS011;33197;52.524;13.444;2023-06-05T12:26:59;9.73;;;2.03;;
47289;SDS011;33197;52.524;13.444;2023-06-05T12:29:32;4.32;;;1.95;;
47289;SDS011;33197;52.524;13.444;2023-06-05T12:32:21;5.50;;;2.10;;
47289;SDS011;33197;52.524;13.444;2023-06-05T12:34:55;3.78;;;1.88;;
47289;SDS011;33197;52.524;13.444;2023-06-05T12:37:31;2.10;;;1.85;;
47289;SDS011;33197;52.524;13.444;2023-06-05T12:40:02;3.65;;;1.95;;
47289;SDS011;33197;52.524;13.444;2023-06-05T12:42:35;4.85;;;2.38;;
47289;SDS011;33197;52.524;13.444;2023-06-05T12:45:06;2.85;;;1.92;;
47289;SDS011;33197;52.524;13.444;2023-06-05T12:47:37;3.78;;;2.30;;
47289;SDS011;33197;52.524;13.444;2023-06-05T12:50:12;2.90;;;2.00;;
47289;SDS011;33197;52.524;13.444;2023-06-05T12:52:40;10.93;;;2.38;;
47289;SDS011;33197;52.524;13.444;2023-06-05T12:55:08;2.45;;;1.67;;
47289;SDS011;33197;52.524;13.444;2023-06-05T12:57:39;3.15;;;1.98;;
47289;SDS011;33197;52.524;13.444;2023-06-05T13:00:07;8.48;;;2.20;;
47289;SDS011;33197;52.524;13.444;2023-06-05T13:02:42;3.22;;;1.92;;
47289;SDS011;33197;52.524;13.444;2023-06-05T13:05:15;8.27;;;2.47;;
47289;SDS011;33197;52.524;13.444;2023-06-05T13:07:47;2.10;;;1.90;;
47289;SDS011;33197;52.524;13.444;2023-06-05T13:10:17;7.28;;;2.22;;
47289;SDS011;33197;52.524;13.444;2023-06-05T13:12:48;2.55;;;1.70;;
47289;SDS011;33197;52.524;13.444;2023-06-05T13:15:15;4.63;;;2.38;;
47289;SDS011;33197;52.524;13.444;2023-06-05T13:17:43;7.47;;;2.42;;
47289;SDS011;33197;52.524;13.444;2023-06-05T13:20:13;7.07;;;2.20;;
47289;SDS011;33197;52.524;13.444;2023-06-05T13:22:41;8.20;;;2.22;;
47289;SDS011;33197;52.524;13.444;2023-06-05T13:28:39;3.42;;;2.40;;
47289;SDS011;33197;52.524;13.444;2023-06-05T13:31:12;4.35;;;2.30;;
47289;SDS011;33197;52.524;13.444;2023-06-05T13:33:41;3.20;;;1.88;;
47289;SDS011;33197;52.524;13.444;2023-06-05T13:38:43;5.95;;;2.38;;
47289;SDS011;33197;52.524;13.444;2023-06-05T13:41:15;3.08;;;2.28;;
47289;SDS011;33197;52.524;13.444;2023-06-05T13:43:46;3.92;;;2.40;;
47289;SDS011;33197;52.524;13.444;2023-06-05T13:46:16;6.10;;;2.33;;
47289;SDS011;33197;52.524;13.444;2023-06-05T13:48:47;7.18;;;2.90;;
47289;SDS011;33197;52.524;13.444;2023-06-05T13:51:15;4.65;;;2.72;;
47289;SDS011;33197;52.524;13.444;2023-06-05T13:53:47;5.55;;;2.20;;
47289;SDS011;33197;52.524;13.444;2023-06-05T13:56:16;12.40;;;2.53;;
47289;SDS011;33197;52.524;13.444;2023-06-05T13:58:43;3.40;;;2.13;;
47289;SDS011;33197;52.524;13.444;2023-06-05T14:01:13;2.50;;;2.20;;
47289;SDS011;33197;52.524;13.444;2023-06-05T14:03:44;4.88;;;2.17;;
47289;SDS011;33197;52.524;13.444;2023-06-05T14:06:13;6.35;;;2.30;;
47289;SDS011;33197;52.524;13.444;2023-06-05T14:08:41;2.58;;;2.20;;
47289;SDS011;33197;52.524;13.444;2023-06-05T14:11:08;6.93;;;2.42;;
47289;SDS011;33197;52.524;13.444;2023-06-05T14:13:36;16.92;;;2.67;;
47289;SDS011;33197;52.524;13.444;2023-06-05T14:16:04;5.50;;;2.33;;
47289;SDS011;33197;52.524;13.444;2023-06-05T14:18:32;4.38;;;2.30;;
47289;SDS011;33197;52.524;13.444;2023-06-05T14:20:59;8.77;;;3.25;;
47289;SDS011;33197;52.524;13.444;2023-06-05T14:23:30;2.42;;;2.22;;
47289;SDS011;33197;52.524;13.444;2023-06-05T14:25:59;6.68;;;2.50;;
47289;SDS011;33197;52.524;13.444;2023-06-05T14:28:27;3.47;;;2.35;;
47289;SDS011;33197;52.524;13.444;2023-06-05T14:30:59;5.10;;;2.47;;
47289;SDS011;33197;52.524;13.444;2023-06-05T14:33:30;3.83;;;2.72;;
47289;SDS011;33197;52.524;13.444;2023-06-05T14:35:58;2.92;;;2.45;;
47289;SDS011;33197;52.524;13.444;2023-06-05T14:38:30;4.15;;;2.90;;
47289;SDS011;33197;52.524;13.444;2023-06-05T14:40:58;5.70;;;3.05;;
47289;SDS011;33197;52.524;13.444;2023-06-05T14:43:28;4.07;;;2.83;;
47289;SDS011;33197;52.524;13.444;2023-06-05T14:45:59;4.07;;;2.72;;
47289;SDS011;33197;52.524;13.444;2023-06-05T14:48:33;5.45;;;3.50;;
47289;SDS011;33197;52.524;13.444;2023-06-05T14:51:03;6.00;;;4.30;;
47289;SDS011;33197;52.524;13.444;2023-06-05T14:53:31;4.75;;;4.22;;
47289;SDS011;33197;52.524;13.444;2023-06-05T14:56:00;5.97;;;5.07;;
47289;SDS011;33197;52.524;13.444;2023-06-05T14:58:32;5.63;;;5.22;;
47289;SDS011;33197;52.524;13.444;2023-06-05T15:01:02;6.70;;;6.20;;
47289;SDS011;33197;52.524;13.444;2023-06-05T15:03:32;6.88;;;6.47;;
47289;SDS011;33197;52.524;13.444;2023-06-05T15:06:00;8.50;;;7.45;;
47289;SDS011;33197;52.524;13.444;2023-06-05T15:08:47;7.45;;;6.95;;
47289;SDS011;33197;52.524;13.444;2023-06-05T15:11:16;7.10;;;6.50;;
47289;SDS011;33197;52.524;13.444;2023-06-05T15:13:47;6.88;;;6.32;;
47289;SDS011;33197;52.524;13.444;2023-06-05T15:16:15;7.20;;;6.70;;
47289;SDS011;33197;52.524;13.444;2023-06-05T15:19:05;7.63;;;7.03;;
47289;SDS011;33197;52.524;13.444;2023-06-05T15:21:37;7.55;;;6.85;;
47289;SDS011;33197;52.524;13.444;2023-06-05T15:24:04;6.95;;;6.28;;
47289;SDS011;33197;52.524;13.444;2023-06-05T15:26:34;6.80;;;6.00;;
47289;SDS011;33197;52.524;13.444;2023-06-05T15:29:02;5.88;;;5.43;;
47289;SDS011;33197;52.524;13.444;2023-06-05T15:31:34;6.97;;;4.10;;
47289;SDS011;33197;52.524;13.444;2023-06-05T15:34:02;6.03;;;3.63;;
47289;SDS011;33197;52.524;13.444;2023-06-05T15:36:29;9.48;;;3.67;;
47289;SDS011;33197;52.524;13.444;2023-06-05T15:38:57;6.20;;;3.83;;
47289;SDS011;33197;52.524;13.444;2023-06-05T15:41:28;6.88;;;3.50;;
47289;SDS011;33197;52.524;13.444;2023-06-05T15:44:00;3.75;;;3.33;;
47289;SDS011;33197;52.524;13.444;2023-06-05T15:46:29;7.40;;;3.50;;
47289;SDS011;33197;52.524;13.444;2023-06-05T15:48:59;7.07;;;4.38;;
47289;SDS011;33197;52.524;13.444;2023-06-05T15:51:30;5.35;;;5.00;;
47289;SDS011;33197;52.524;13.444;2023-06-05T15:53:59;7.20;;;6.53;;
47289;SDS011;33197;52.524;13.444;2023-06-05T15:57:29;7.93;;;7.28;;
47289;SDS011;33197;52.524;13.444;2023-06-05T15:59:40;8.07;;;7.28;;
47289;SDS011;33197;52.524;13.444;2023-06-05T16:02:10;8.75;;;8.25;;
47289;SDS011;33197;52.524;13.444;2023-06-05T16:04:39;8.95;;;8.07;;
47289;SDS011;33197;52.524;13.444;2023-06-05T16:07:10;10.13;;;9.20;;